sensor_id;sensor_type;location;lat;lon;timestamp;P1;durP1;ratioP1;P2;durP2;ratioP2
26038;SDS011;13815;52.374;4.882;2023-05-14T00:01:10;35.95;;;28.85;;
26038;SDS011;13815;52.374;4.882;2023-05-14T00:03:36;41.13;;;29.23;;
26038;SDS011;13815;52.374;4.882;2023-05-14T00:06:02;37.08;;;29.60;;
26038;SDS011;13815;52.374;4.882;2023-05-14T00:08:28;38.28;;;30.02;;
26038;SDS011;13815;52.374;4.882;2023-05-14T00:10:53;37.38;;;29.60;;
26038;SDS011;13815;52.374;4.882;2023-05-14T00:13:18;37.15;;;29.83;;
26038;SDS011;13815;52.374;4.882;2023-05-14T00:15:44;41.25;;;29.90;;
26038;SDS011;13815;52.374;4.882;2023-05-14T00:18:09;40.95;;;29.95;;
26038;SDS011;13815;52.374;4.882;2023-05-14T00:20:36;38.13;;;30.38;;
26038;SDS011;13815;52.374;4.882;2023-05-14T00:23:01;40.88;;;30.85;;
26038;SDS011;13815;52.374;4.882;2023-05-14T00:25:27;46.72;;;33.17;;
26038;SDS011;13815;52.374;4.882;2023-05-14T00:27:52;45.72;;;31.45;;
26038;SDS011;13815;52.374;4.882;2023-05-14T00:30:17;46.60;;;32.08;;
26038;SDS011;13815;52.374;4.882;2023-05-14T00:32:43;44.85;;;31.70;;
26038;SDS011;13815;52.374;4.882;2023-05-14T00:35:08;41.25;;;32.17;;
26038;SDS011;13815;52.374;4.882;2023-05-14T00:37:34;40.72;;;31.25;;
26038;SDS011;13815;52.374;4.882;2023-05-14T00:40:00;44.65;;;31.15;;
26038;SDS011;13815;52.374;4.882;2023-05-14T00:42:25;37.25;;;29.92;;
26038;SDS011;13815;52.374;4.882;2023-05-14T00:44:51;36.38;;;29.55;;
26038;SDS011;13815;52.374;4.882;2023-05-14T00:47:17;36.47;;;29.73;;
26038;SDS011;13815;52.374;4.882;2023-05-14T00:49:42;33.42;;;28.27;;
26038;SDS011;13815;52.374;4.882;2023-05-14T00:52:08;33.22;;;27.83;;
26038;SDS011;13815;52.374;4.882;2023-05-14T00:54:35;31.15;;;27.33;;
26038;SDS011;13815;52.374;4.882;2023-05-14T00:57:00;36.03;;;26.67;;
26038;SDS011;13815;52.374;4.882;2023-05-14T00:59:26;28.63;;;24.60;;
26038;SDS011;13815;52.374;4.882;2023-05-14T01:01:51;27.08;;;24.15;;
26038;SDS011;13815;52.374;4.882;2023-05-14T01:04:16;27.60;;;24.25;;
26038;SDS011;13815;52.374;4.882;2023-05-14T01:09:46;29.85;;;24.70;;
26038;SDS011;13815;52.374;4.882;2023-05-14T01:12:32;28.20;;;24.33;;
26038;SDS011;13815;52.374;4.882;2023-05-14T01:15:05;27.73;;;24.42;;
26038;SDS011;13815;52.374;4.882;2023-05-14T01:17:37;29.48;;;25.23;;
26038;SDS011;13815;52.374;4.882;2023-05-14T01:20:06;27.63;;;24.55;;
26038;SDS011;13815;52.374;4.882;2023-05-14T01:22:32;39.03;;;25.52;;
26038;SDS011;13815;52.374;4.882;2023-05-14T01:24:57;26.30;;;23.50;;
26038;SDS011;13815;52.374;4.882;2023-05-14T01:27:41;25.77;;;23.00;;
26038;SDS011;13815;52.374;4.882;2023-05-14T01:30:18;25.42;;;22.73;;
26038;SDS011;13815;52.374;4.882;2023-05-14T01:32:47;24.08;;;21.60;;
26038;SDS011;13815;52.374;4.882;2023-05-14T01:35:16;25.50;;;22.90;;
26038;SDS011;13815;52.374;4.882;2023-05-14T01:37:41;25.48;;;22.90;;
26038;SDS011;13815;52.374;4.882;2023-05-14T01:40:08;23.50;;;21.20;;
26038;SDS011;13815;52.374;4.882;2023-05-14T01:42:34;23.88;;;21.48;;
26038;SDS011;13815;52.374;4.882;2023-05-14T01:45:00;23.65;;;21.30;;
26038;SDS011;13815;52.374;4.882;2023-05-14T01:47:25;23.98;;;21.58;;
26038;SDS011;13815;52.374;4.882;2023-05-14T01:49:51;23.35;;;21.05;;
26038;SDS011;13815;52.374;4.882;2023-05-14T01:52:16;24.13;;;21.63;;
26038;SDS011;13815;52.374;4.882;2023-05-14T01:54:44;23.58;;;21.17;;
26038;SDS011;13815;52.374;4.882;2023-05-14T01:57:10;24.00;;;21.50;;
26038;SDS011;13815;52.374;4.882;2023-05-14T01:59:35;33.63;;;26.13;;
26038;SDS011;13815;52.374;4.882;2023-05-14T02:02:00;26.13;;;23.52;;
26038;SDS011;13815;52.374;4.882;2023-05-14T02:04:26;35.55;;;25.02;;
26038;SDS011;13815;52.374;4.882;2023-05-14T02:06:51;27.42;;;24.63;;
26038;SDS011;13815;52.374;4.882;2023-05-14T02:09:16;27.48;;;24.65;;
26038;SDS011;13815;52.374;4.882;2023-05-14T02:11:42;25.10;;;22.60;;
26038;SDS011;13815;52.374;4.882;2023-05-14T02:14:07;25.92;;;23.33;;
26038;SDS011;13815;52.374;4.882;2023-05-14T02:16:32;24.90;;;22.50;;
26038;SDS011;13815;52.374;4.882;2023-05-14T02:19:00;26.80;;;22.60;;
26038;SDS011;13815;52.374;4.882;2023-05-14T02:21:26;24.35;;;21.95;;
26038;SDS011;13815;52.374;4.882;2023-05-14T02:23:51;28.23;;;21.30;;
26038;SDS011;13815;52.374;4.882;2023-05-14T02:26:16;23.75;;;21.45;;
26038;SDS011;13815;52.374;4.882;2023-05-14T02:28:42;22.80;;;20.70;;
26038;SDS011;13815;52.374;4.882;2023-05-14T02:31:07;21.40;;;19.50;;
26038;SDS011;13815;52.374;4.882;2023-05-14T02:33:35;23.05;;;20.63;;
26038;SDS011;13815;52.374;4.882;2023-05-14T02:36:00;22.15;;;20.15;;
26038;SDS011;13815;52.374;4.882;2023-05-14T02:38:26;22.40;;;19.88;;
26038;SDS011;13815;52.374;4.882;2023-05-14T02:40:51;22.13;;;20.02;;
26038;SDS011;13815;52.374;4.882;2023-05-14T02:43:16;20.25;;;18.55;;
26038;SDS011;13815;52.374;4.882;2023-05-14T02:45:42;22.35;;;20.25;;
26038;SDS011;13815;52.374;4.882;2023-05-14T02:48:07;20.55;;;18.27;;
26038;SDS011;13815;52.374;4.882;2023-05-14T02:50:33;22.25;;;17.95;;
26038;SDS011;13815;52.374;4.882;2023-05-14T02:52:58;19.38;;;17.80;;
26038;SDS011;13815;52.374;4.882;2023-05-14T02:55:24;20.38;;;18.20;;
26038;SDS011;13815;52.374;4.882;2023-05-14T02:57:50;25.67;;;18.45;;
26038;SDS011;13815;52.374;4.882;2023-05-14T03:00:17;18.02;;;16.63;;
26038;SDS011;13815;52.374;4.882;2023-05-14T03:02:43;17.17;;;15.98;;
26038;SDS011;13815;52.374;4.882;2023-05-14T03:05:08;17.20;;;15.90;;
26038;SDS011;13815;52.374;4.882;2023-05-14T03:07:34;16.30;;;15.20;;
26038;SDS011;13815;52.374;4.882;2023-05-14T03:09:59;16.85;;;15.65;;
26038;SDS011;13815;52.374;4.882;2023-05-14T03:12:24;17.10;;;15.90;;
26038;SDS011;13815;52.374;4.882;2023-05-14T03:14:50;15.85;;;14.85;;
26038;SDS011;13815;52.374;4.882;2023-05-14T03:17:15;16.45;;;15.25;;
26038;SDS011;13815;52.374;4.882;2023-05-14T03:19:41;15.43;;;14.52;;
26038;SDS011;13815;52.374;4.882;2023-05-14T03:22:06;15.57;;;14.68;;
26038;SDS011;13815;52.374;4.882;2023-05-14T03:24:32;15.75;;;14.73;;
26038;SDS011;13815;52.374;4.882;2023-05-14T03:26:58;14.70;;;13.90;;
26038;SDS011;13815;52.374;4.882;2023-05-14T03:29:23;14.35;;;13.60;;
26038;SDS011;13815;52.374;4.882;2023-05-14T03:31:49;15.55;;;14.65;;
26038;SDS011;13815;52.374;4.882;2023-05-14T03:34:14;14.70;;;13.90;;
26038;SDS011;13815;52.374;4.882;2023-05-14T03:36:39;14.75;;;13.77;;
26038;SDS011;13815;52.374;4.882;2023-05-14T03:39:05;13.50;;;12.90;;
26038;SDS011;13815;52.374;4.882;2023-05-14T03:41:33;13.20;;;12.60;;
26038;SDS011;13815;52.374;4.882;2023-05-14T03:43:59;15.18;;;12.95;;
26038;SDS011;13815;52.374;4.882;2023-05-14T03:46:25;13.27;;;12.23;;
26038;SDS011;13815;52.374;4.882;2023-05-14T03:48:50;12.68;;;12.07;;
26038;SDS011;13815;52.374;4.882;2023-05-14T03:51:15;11.75;;;11.25;;
26038;SDS011;13815;52.374;4.882;2023-05-14T03:53:41;11.18;;;10.70;;
26038;SDS011;13815;52.374;4.882;2023-05-14T03:56:06;11.18;;;10.60;;
26038;SDS011;13815;52.374;4.882;2023-05-14T03:58:31;10.15;;;9.75;;
26038;SDS011;13815;52.374;4.882;2023-05-14T04:00:57;9.45;;;9.13;;
26038;SDS011;13815;52.374;4.882;2023-05-14T04:03:22;9.70;;;9.30;;
26038;SDS011;13815;52.374;4.882;2023-05-14T04:05:47;8.80;;;8.50;;
26038;SDS011;13815;52.374;4.882;2023-05-14T04:08:15;8.23;;;7.93;;
26038;SDS011;13815;52.374;4.882;2023-05-14T04:10:41;8.48;;;7.60;;
26038;SDS011;13815;52.374;4.882;2023-05-14T04:13:06;8.35;;;7.85;;
26038;SDS011;13815;52.374;4.882;2023-05-14T04:15:32;6.50;;;6.20;;
26038;SDS011;13815;52.374;4.882;2023-05-14T04:17:57;8.85;;;7.75;;
26038;SDS011;13815;52.374;4.882;2023-05-14T04:20:22;5.25;;;4.95;;
26038;SDS011;13815;52.374;4.882;2023-05-14T04:22:48;8.23;;;4.82;;
26038;SDS011;13815;52.374;4.882;2023-05-14T04:25:13;4.72;;;4.53;;
26038;SDS011;13815;52.374;4.882;2023-05-14T04:27:38;7.05;;;3.92;;
26038;SDS011;13815;52.374;4.882;2023-05-14T04:30:04;12.13;;;3.72;;
26038;SDS011;13815;52.374;4.882;2023-05-14T04:32:30;3.00;;;2.90;;
26038;SDS011;13815;52.374;4.882;2023-05-14T04:34:55;2.30;;;2.28;;
26038;SDS011;13815;52.374;4.882;2023-05-14T04:37:21;2.50;;;2.40;;
26038;SDS011;13815;52.374;4.882;2023-05-14T04:39:46;3.05;;;2.95;;
26038;SDS011;13815;52.374;4.882;2023-05-14T04:42:11;2.90;;;2.80;;
26038;SDS011;13815;52.374;4.882;2023-05-14T04:44:37;2.55;;;2.45;;
26038;SDS011;13815;52.374;4.882;2023-05-14T04:47:03;2.85;;;2.75;;
26038;SDS011;13815;52.374;4.882;2023-05-14T04:49:28;2.63;;;2.53;;
26038;SDS011;13815;52.374;4.882;2023-05-14T04:51:54;2.30;;;2.20;;
26038;SDS011;13815;52.374;4.882;2023-05-14T04:54:19;3.17;;;3.08;;
26038;SDS011;13815;52.374;4.882;2023-05-14T04:56:45;3.13;;;3.03;;
26038;SDS011;13815;52.374;4.882;2023-05-14T04:59:11;2.63;;;2.53;;
26038;SDS011;13815;52.374;4.882;2023-05-14T05:01:37;2.85;;;2.75;;
26038;SDS011;13815;52.374;4.882;2023-05-14T05:04:02;3.83;;;3.63;;
26038;SDS011;13815;52.374;4.882;2023-05-14T05:06:28;3.45;;;2.05;;
26038;SDS011;13815;52.374;4.882;2023-05-14T05:08:53;2.00;;;1.92;;
26038;SDS011;13815;52.374;4.882;2023-05-14T05:11:19;1.75;;;1.75;;
26038;SDS011;13815;52.374;4.882;2023-05-14T05:13:45;5.85;;;2.30;;
26038;SDS011;13815;52.374;4.882;2023-05-14T05:16:10;5.70;;;2.47;;
26038;SDS011;13815;52.374;4.882;2023-05-14T05:18:36;1.95;;;1.95;;
26038;SDS011;13815;52.374;4.882;2023-05-14T05:21:01;2.35;;;2.25;;
26038;SDS011;13815;52.374;4.882;2023-05-14T05:23:26;2.92;;;2.83;;
26038;SDS011;13815;52.374;4.882;2023-05-14T05:25:52;1.98;;;1.88;;
26038;SDS011;13815;52.374;4.882;2023-05-14T05:28:17;2.28;;;2.17;;
26038;SDS011;13815;52.374;4.882;2023-05-14T05:30:42;1.30;;;1.30;;
26038;SDS011;13815;52.374;4.882;2023-05-14T05:33:09;2.47;;;2.38;;
26038;SDS011;13815;52.374;4.882;2023-05-14T05:35:35;1.48;;;1.48;;
26038;SDS011;13815;52.374;4.882;2023-05-14T05:38:00;1.70;;;1.65;;
26038;SDS011;13815;52.374;4.882;2023-05-14T05:40:25;1.25;;;1.25;;
26038;SDS011;13815;52.374;4.882;2023-05-14T05:42:51;4.53;;;1.50;;
26038;SDS011;13815;52.374;4.882;2023-05-14T05:45:16;1.45;;;1.45;;
26038;SDS011;13815;52.374;4.882;2023-05-14T05:47:41;2.45;;;1.80;;
26038;SDS011;13815;52.374;4.882;2023-05-14T05:50:07;3.42;;;3.22;;
26038;SDS011;13815;52.374;4.882;2023-05-14T05:52:33;4.60;;;1.80;;
26038;SDS011;13815;52.374;4.882;2023-05-14T05:54:58;10.20;;;2.65;;
26038;SDS011;13815;52.374;4.882;2023-05-14T05:57:24;1.70;;;1.70;;
26038;SDS011;13815;52.374;4.882;2023-05-14T05:59:51;1.75;;;1.75;;
26038;SDS011;13815;52.374;4.882;2023-05-14T06:02:17;9.35;;;3.05;;
26038;SDS011;13815;52.374;4.882;2023-05-14T06:04:43;3.55;;;3.45;;
26038;SDS011;13815;52.374;4.882;2023-05-14T06:07:08;3.67;;;3.58;;
26038;SDS011;13815;52.374;4.882;2023-05-14T06:09:33;3.60;;;3.50;;
26038;SDS011;13815;52.374;4.882;2023-05-14T06:11:59;5.82;;;4.43;;
26038;SDS011;13815;52.374;4.882;2023-05-14T06:14:24;4.40;;;4.30;;
26038;SDS011;13815;52.374;4.882;2023-05-14T06:16:49;3.70;;;3.60;;
26038;SDS011;13815;52.374;4.882;2023-05-14T06:19:18;4.25;;;4.15;;
26038;SDS011;13815;52.374;4.882;2023-05-14T06:21:43;13.60;;;4.57;;
26038;SDS011;13815;52.374;4.882;2023-05-14T06:24:08;4.05;;;3.95;;
26038;SDS011;13815;52.374;4.882;2023-05-14T06:26:34;4.93;;;4.18;;
26038;SDS011;13815;52.374;4.882;2023-05-14T06:28:59;3.95;;;3.85;;
26038;SDS011;13815;52.374;4.882;2023-05-14T06:31:25;4.25;;;4.15;;
26038;SDS011;13815;52.374;4.882;2023-05-14T06:33:50;4.85;;;4.75;;
26038;SDS011;13815;52.374;4.882;2023-05-14T06:36:16;4.07;;;3.97;;
26038;SDS011;13815;52.374;4.882;2023-05-14T06:38:41;3.70;;;3.60;;
26038;SDS011;13815;52.374;4.882;2023-05-14T06:41:06;4.53;;;4.20;;
26038;SDS011;13815;52.374;4.882;2023-05-14T06:43:32;4.05;;;3.95;;
26038;SDS011;13815;52.374;4.882;2023-05-14T06:45:57;4.20;;;4.10;;
26038;SDS011;13815;52.374;4.882;2023-05-14T06:48:22;4.28;;;4.18;;
26038;SDS011;13815;52.374;4.882;2023-05-14T06:50:48;4.35;;;4.25;;
26038;SDS011;13815;52.374;4.882;2023-05-14T06:53:13;4.40;;;4.30;;
26038;SDS011;13815;52.374;4.882;2023-05-14T06:55:39;4.40;;;4.30;;
26038;SDS011;13815;52.374;4.882;2023-05-14T06:58:05;4.82;;;4.72;;
26038;SDS011;13815;52.374;4.882;2023-05-14T07:00:31;4.97;;;4.88;;
26038;SDS011;13815;52.374;4.882;2023-05-14T07:02:56;4.80;;;4.70;;
26038;SDS011;13815;52.374;4.882;2023-05-14T07:05:23;5.60;;;5.50;;
26038;SDS011;13815;52.374;4.882;2023-05-14T07:07:48;8.98;;;5.90;;
26038;SDS011;13815;52.374;4.882;2023-05-14T07:10:14;5.93;;;5.72;;
26038;SDS011;13815;52.374;4.882;2023-05-14T07:12:39;5.90;;;5.80;;
26038;SDS011;13815;52.374;4.882;2023-05-14T07:15:05;9.13;;;6.72;;
26038;SDS011;13815;52.374;4.882;2023-05-14T07:17:31;6.95;;;6.75;;
26038;SDS011;13815;52.374;4.882;2023-05-14T07:19:56;6.20;;;6.00;;
26038;SDS011;13815;52.374;4.882;2023-05-14T07:22:21;6.88;;;6.68;;
26038;SDS011;13815;52.374;4.882;2023-05-14T07:24:47;7.63;;;7.43;;
26038;SDS011;13815;52.374;4.882;2023-05-14T07:27:13;8.25;;;7.95;;
26038;SDS011;13815;52.374;4.882;2023-05-14T07:29:38;7.90;;;7.70;;
26038;SDS011;13815;52.374;4.882;2023-05-14T07:32:03;7.22;;;7.03;;
26038;SDS011;13815;52.374;4.882;2023-05-14T07:34:29;12.15;;;7.57;;
26038;SDS011;13815;52.374;4.882;2023-05-14T07:36:54;8.05;;;7.85;;
26038;SDS011;13815;52.374;4.882;2023-05-14T07:39:20;9.32;;;8.60;;
26038;SDS011;13815;52.374;4.882;2023-05-14T07:41:45;12.13;;;8.90;;
26038;SDS011;13815;52.374;4.882;2023-05-14T07:44:11;9.80;;;9.50;;
26038;SDS011;13815;52.374;4.882;2023-05-14T07:46:36;9.32;;;9.02;;
26038;SDS011;13815;52.374;4.882;2023-05-14T07:49:02;10.07;;;8.98;;
26038;SDS011;13815;52.374;4.882;2023-05-14T07:51:27;9.85;;;9.43;;
26038;SDS011;13815;52.374;4.882;2023-05-14T07:53:53;10.65;;;9.80;;
26038;SDS011;13815;52.374;4.882;2023-05-14T07:56:19;10.05;;;9.75;;
26038;SDS011;13815;52.374;4.882;2023-05-14T07:58:46;9.90;;;9.60;;
26038;SDS011;13815;52.374;4.882;2023-05-14T08:01:11;11.98;;;10.38;;
26038;SDS011;13815;52.374;4.882;2023-05-14T08:03:36;9.30;;;9.00;;
26038;SDS011;13815;52.374;4.882;2023-05-14T08:06:02;11.63;;;9.90;;
26038;SDS011;13815;52.374;4.882;2023-05-14T08:08:28;10.27;;;9.88;;
26038;SDS011;13815;52.374;4.882;2023-05-14T08:10:53;10.43;;;10.02;;
26038;SDS011;13815;52.374;4.882;2023-05-14T08:13:19;11.48;;;10.52;;
26038;SDS011;13815;52.374;4.882;2023-05-14T08:15:44;10.65;;;10.25;;
26038;SDS011;13815;52.374;4.882;2023-05-14T08:18:10;10.93;;;10.52;;
26038;SDS011;13815;52.374;4.882;2023-05-14T08:20:35;10.60;;;10.20;;
26038;SDS011;13815;52.374;4.882;2023-05-14T08:23:01;11.60;;;11.20;;
26038;SDS011;13815;52.374;4.882;2023-05-14T08:25:26;13.05;;;12.55;;
26038;SDS011;13815;52.374;4.882;2023-05-14T08:27:51;13.10;;;12.13;;
26038;SDS011;13815;52.374;4.882;2023-05-14T08:30:18;12.35;;;11.85;;
26038;SDS011;13815;52.374;4.882;2023-05-14T08:32:43;11.75;;;11.35;;
26038;SDS011;13815;52.374;4.882;2023-05-14T08:35:09;13.60;;;12.10;;
26038;SDS011;13815;52.374;4.882;2023-05-14T08:37:35;11.52;;;11.13;;
26038;SDS011;13815;52.374;4.882;2023-05-14T08:40:00;13.85;;;12.88;;
26038;SDS011;13815;52.374;4.882;2023-05-14T08:42:26;12.60;;;12.10;;
26038;SDS011;13815;52.374;4.882;2023-05-14T08:44:56;12.55;;;12.05;;
26038;SDS011;13815;52.374;4.882;2023-05-14T08:47:27;14.45;;;13.43;;
26038;SDS011;13815;52.374;4.882;2023-05-14T08:49:58;13.60;;;13.10;;
26038;SDS011;13815;52.374;4.882;2023-05-14T08:52:26;14.60;;;14.00;;
26038;SDS011;13815;52.374;4.882;2023-05-14T08:54:54;14.35;;;13.75;;
26038;SDS011;13815;52.374;4.882;2023-05-14T08:57:21;13.70;;;13.20;;
26038;SDS011;13815;52.374;4.882;2023-05-14T08:59:49;13.50;;;13.00;;
26038;SDS011;13815;52.374;4.882;2023-05-14T09:02:14;13.15;;;12.65;;
26038;SDS011;13815;52.374;4.882;2023-05-14T09:04:41;15.82;;;14.73;;
26038;SDS011;13815;52.374;4.882;2023-05-14T09:07:07;15.95;;;15.25;;
26038;SDS011;13815;52.374;4.882;2023-05-14T09:09:32;16.13;;;15.32;;
26038;SDS011;13815;52.374;4.882;2023-05-14T09:11:57;17.33;;;16.00;;
26038;SDS011;13815;52.374;4.882;2023-05-14T09:14:23;15.90;;;15.10;;
26038;SDS011;13815;52.374;4.882;2023-05-14T09:16:49;22.45;;;20.35;;
26038;SDS011;13815;52.374;4.882;2023-05-14T09:19:15;20.42;;;18.50;;
26038;SDS011;13815;52.374;4.882;2023-05-14T09:21:43;20.20;;;18.67;;
26038;SDS011;13815;52.374;4.882;2023-05-14T09:24:08;21.30;;;19.08;;
26038;SDS011;13815;52.374;4.882;2023-05-14T09:26:43;21.50;;;19.70;;
26038;SDS011;13815;52.374;4.882;2023-05-14T09:29:08;24.00;;;20.80;;
26038;SDS011;13815;52.374;4.882;2023-05-14T09:31:33;26.10;;;20.45;;
26038;SDS011;13815;52.374;4.882;2023-05-14T09:34:01;21.58;;;19.58;;
26038;SDS011;13815;52.374;4.882;2023-05-14T09:36:26;22.35;;;20.25;;
26038;SDS011;13815;52.374;4.882;2023-05-14T09:38:52;22.20;;;20.10;;
26038;SDS011;13815;52.374;4.882;2023-05-14T09:41:20;21.38;;;19.38;;
26038;SDS011;13815;52.374;4.882;2023-05-14T09:43:47;22.73;;;20.42;;
26038;SDS011;13815;52.374;4.882;2023-05-14T09:46:14;21.85;;;19.60;;
26038;SDS011;13815;52.374;4.882;2023-05-14T09:48:39;23.23;;;20.35;;
26038;SDS011;13815;52.374;4.882;2023-05-14T09:51:05;23.55;;;21.25;;
26038;SDS011;13815;52.374;4.882;2023-05-14T09:53:33;22.92;;;20.63;;
26038;SDS011;13815;52.374;4.882;2023-05-14T09:55:59;28.23;;;22.65;;
26038;SDS011;13815;52.374;4.882;2023-05-14T09:58:24;32.60;;;24.23;;
26038;SDS011;13815;52.374;4.882;2023-05-14T10:00:50;28.05;;;23.67;;
26038;SDS011;13815;52.374;4.882;2023-05-14T10:03:16;29.20;;;23.83;;
26038;SDS011;13815;52.374;4.882;2023-05-14T10:05:42;27.85;;;22.08;;
26038;SDS011;13815;52.374;4.882;2023-05-14T10:08:11;29.92;;;22.95;;
26038;SDS011;13815;52.374;4.882;2023-05-14T10:10:38;33.92;;;23.95;;
26038;SDS011;13815;52.374;4.882;2023-05-14T10:13:06;30.65;;;25.00;;
26038;SDS011;13815;52.374;4.882;2023-05-14T10:15:36;38.47;;;26.70;;
26038;SDS011;13815;52.374;4.882;2023-05-14T10:18:09;33.30;;;25.65;;
26038;SDS011;13815;52.374;4.882;2023-05-14T10:20:50;33.78;;;24.23;;
26038;SDS011;13815;52.374;4.882;2023-05-14T10:23:17;32.63;;;25.90;;
26038;SDS011;13815;52.374;4.882;2023-05-14T10:25:43;34.88;;;24.50;;
26038;SDS011;13815;52.374;4.882;2023-05-14T10:28:08;37.60;;;24.85;;
26038;SDS011;13815;52.374;4.882;2023-05-14T10:30:34;31.17;;;24.67;;
26038;SDS011;13815;52.374;4.882;2023-05-14T10:33:06;34.88;;;24.52;;
26038;SDS011;13815;52.374;4.882;2023-05-14T10:35:49;33.10;;;24.95;;
26038;SDS011;13815;52.374;4.882;2023-05-14T10:38:15;29.45;;;23.98;;
26038;SDS011;13815;52.374;4.882;2023-05-14T10:40:41;40.25;;;25.88;;
26038;SDS011;13815;52.374;4.882;2023-05-14T10:43:06;34.53;;;25.45;;
26038;SDS011;13815;52.374;4.882;2023-05-14T10:45:32;32.65;;;25.65;;
26038;SDS011;13815;52.374;4.882;2023-05-14T10:47:58;32.63;;;25.25;;
26038;SDS011;13815;52.374;4.882;2023-05-14T10:50:23;31.48;;;24.83;;
26038;SDS011;13815;52.374;4.882;2023-05-14T10:52:50;31.08;;;24.85;;
26038;SDS011;13815;52.374;4.882;2023-05-14T10:55:16;32.55;;;25.58;;
26038;SDS011;13815;52.374;4.882;2023-05-14T10:57:43;37.60;;;26.55;;
26038;SDS011;13815;52.374;4.882;2023-05-14T11:00:09;36.15;;;25.48;;
26038;SDS011;13815;52.374;4.882;2023-05-14T11:02:37;33.45;;;25.60;;
26038;SDS011;13815;52.374;4.882;2023-05-14T11:05:07;31.25;;;24.33;;
26038;SDS011;13815;52.374;4.882;2023-05-14T11:07:36;33.40;;;25.65;;
26038;SDS011;13815;52.374;4.882;2023-05-14T11:10:03;40.53;;;27.15;;
26038;SDS011;13815;52.374;4.882;2023-05-14T11:12:33;44.08;;;27.42;;
26038;SDS011;13815;52.374;4.882;2023-05-14T11:15:01;32.97;;;25.50;;
26038;SDS011;13815;52.374;4.882;2023-05-14T11:17:29;33.92;;;26.30;;
26038;SDS011;13815;52.374;4.882;2023-05-14T11:19:55;31.83;;;25.85;;
26038;SDS011;13815;52.374;4.882;2023-05-14T11:22:21;33.83;;;27.20;;
26038;SDS011;13815;52.374;4.882;2023-05-14T11:24:47;35.42;;;28.48;;
26038;SDS011;13815;52.374;4.882;2023-05-14T11:27:12;34.45;;;27.95;;
26038;SDS011;13815;52.374;4.882;2023-05-14T11:29:38;38.67;;;29.10;;
26038;SDS011;13815;52.374;4.882;2023-05-14T11:32:07;37.03;;;28.15;;
26038;SDS011;13815;52.374;4.882;2023-05-14T11:34:33;40.33;;;28.60;;
26038;SDS011;13815;52.374;4.882;2023-05-14T11:37:02;38.80;;;30.63;;
26038;SDS011;13815;52.374;4.882;2023-05-14T11:39:29;35.55;;;27.55;;
26038;SDS011;13815;52.374;4.882;2023-05-14T11:42:03;35.55;;;28.35;;
26038;SDS011;13815;52.374;4.882;2023-05-14T11:44:31;39.67;;;30.42;;
26038;SDS011;13815;52.374;4.882;2023-05-14T11:46:57;38.67;;;28.13;;
26038;SDS011;13815;52.374;4.882;2023-05-14T11:49:23;35.13;;;27.23;;
26038;SDS011;13815;52.374;4.882;2023-05-14T11:51:58;34.65;;;28.33;;
26038;SDS011;13815;52.374;4.882;2023-05-14T11:54:25;33.90;;;28.17;;
26038;SDS011;13815;52.374;4.882;2023-05-14T11:56:55;39.60;;;30.02;;
26038;SDS011;13815;52.374;4.882;2023-05-14T11:59:22;34.53;;;28.75;;
26038;SDS011;13815;52.374;4.882;2023-05-14T12:01:48;33.00;;;27.88;;
26038;SDS011;13815;52.374;4.882;2023-05-14T12:04:19;38.88;;;31.58;;
26038;SDS011;13815;52.374;4.882;2023-05-14T12:06:49;39.45;;;32.47;;
26038;SDS011;13815;52.374;4.882;2023-05-14T12:09:21;38.15;;;30.52;;
26038;SDS011;13815;52.374;4.882;2023-05-14T12:11:47;38.90;;;31.37;;
26038;SDS011;13815;52.374;4.882;2023-05-14T12:14:17;37.85;;;30.50;;
26038;SDS011;13815;52.374;4.882;2023-05-14T12:16:44;37.90;;;30.50;;
26038;SDS011;13815;52.374;4.882;2023-05-14T12:19:10;38.72;;;30.90;;
26038;SDS011;13815;52.374;4.882;2023-05-14T12:21:38;36.95;;;30.10;;
26038;SDS011;13815;52.374;4.882;2023-05-14T12:24:08;37.55;;;30.80;;
26038;SDS011;13815;52.374;4.882;2023-05-14T12:26:34;44.97;;;30.70;;
26038;SDS011;13815;52.374;4.882;2023-05-14T12:29:00;38.10;;;30.02;;
26038;SDS011;13815;52.374;4.882;2023-05-14T12:31:30;36.72;;;29.50;;
26038;SDS011;13815;52.374;4.882;2023-05-14T12:33:55;36.45;;;30.13;;
26038;SDS011;13815;52.374;4.882;2023-05-14T12:36:21;38.67;;;31.63;;
26038;SDS011;13815;52.374;4.882;2023-05-14T12:38:47;37.72;;;30.65;;
26038;SDS011;13815;52.374;4.882;2023-05-14T12:41:13;40.50;;;32.15;;
26038;SDS011;13815;52.374;4.882;2023-05-14T12:43:39;38.92;;;31.42;;
26038;SDS011;13815;52.374;4.882;2023-05-14T12:46:06;38.35;;;31.20;;
26038;SDS011;13815;52.374;4.882;2023-05-14T12:48:32;36.95;;;29.75;;
26038;SDS011;13815;52.374;4.882;2023-05-14T12:50:57;36.47;;;28.95;;
26038;SDS011;13815;52.374;4.882;2023-05-14T12:53:22;39.05;;;31.65;;
26038;SDS011;13815;52.374;4.882;2023-05-14T12:55:48;40.83;;;32.50;;
26038;SDS011;13815;52.374;4.882;2023-05-14T12:58:13;40.95;;;32.13;;
26038;SDS011;13815;52.374;4.882;2023-05-14T13:00:39;40.38;;;30.95;;
26038;SDS011;13815;52.374;4.882;2023-05-14T13:03:04;39.33;;;28.92;;
26038;SDS011;13815;52.374;4.882;2023-05-14T13:05:29;35.72;;;26.73;;
26038;SDS011;13815;52.374;4.882;2023-05-14T13:07:57;34.85;;;27.40;;
26038;SDS011;13815;52.374;4.882;2023-05-14T13:10:23;35.35;;;27.88;;
26038;SDS011;13815;52.374;4.882;2023-05-14T13:12:48;37.25;;;27.92;;
26038;SDS011;13815;52.374;4.882;2023-05-14T13:15:14;38.20;;;27.95;;
26038;SDS011;13815;52.374;4.882;2023-05-14T13:17:40;36.53;;;27.27;;
26038;SDS011;13815;52.374;4.882;2023-05-14T13:20:05;36.10;;;26.90;;
26038;SDS011;13815;52.374;4.882;2023-05-14T13:22:33;40.92;;;28.77;;
26038;SDS011;13815;52.374;4.882;2023-05-14T13:24:59;43.83;;;27.80;;
26038;SDS011;13815;52.374;4.882;2023-05-14T13:27:24;38.05;;;28.40;;
26038;SDS011;13815;52.374;4.882;2023-05-14T13:29:50;40.05;;;28.00;;
26038;SDS011;13815;52.374;4.882;2023-05-14T13:32:15;36.05;;;27.60;;
26038;SDS011;13815;52.374;4.882;2023-05-14T13:34:40;37.55;;;27.98;;
26038;SDS011;13815;52.374;4.882;2023-05-14T13:37:06;36.90;;;27.48;;
26038;SDS011;13815;52.374;4.882;2023-05-14T13:39:31;39.03;;;27.65;;
26038;SDS011;13815;52.374;4.882;2023-05-14T13:41:57;37.85;;;28.83;;
26038;SDS011;13815;52.374;4.882;2023-05-14T13:44:22;35.30;;;27.38;;
26038;SDS011;13815;52.374;4.882;2023-05-14T13:46:48;33.63;;;25.00;;
26038;SDS011;13815;52.374;4.882;2023-05-14T13:49:13;35.05;;;26.40;;
26038;SDS011;13815;52.374;4.882;2023-05-14T13:51:38;38.20;;;27.40;;
26038;SDS011;13815;52.374;4.882;2023-05-14T13:54:04;35.65;;;27.05;;
26038;SDS011;13815;52.374;4.882;2023-05-14T13:56:32;37.30;;;27.63;;
26038;SDS011;13815;52.374;4.882;2023-05-14T13:58:57;38.72;;;28.13;;
26038;SDS011;13815;52.374;4.882;2023-05-14T14:01:23;40.20;;;30.63;;
26038;SDS011;13815;52.374;4.882;2023-05-14T14:03:51;39.28;;;32.40;;
26038;SDS011;13815;52.374;4.882;2023-05-14T14:06:16;38.00;;;29.80;;
26038;SDS011;13815;52.374;4.882;2023-05-14T14:08:44;37.10;;;28.95;;
26038;SDS011;13815;52.374;4.882;2023-05-14T14:11:09;38.13;;;29.27;;
26038;SDS011;13815;52.374;4.882;2023-05-14T14:13:36;37.60;;;29.35;;
26038;SDS011;13815;52.374;4.882;2023-05-14T14:16:02;40.80;;;30.40;;
26038;SDS011;13815;52.374;4.882;2023-05-14T14:18:28;44.78;;;31.65;;
26038;SDS011;13815;52.374;4.882;2023-05-14T14:20:53;37.85;;;31.25;;
26038;SDS011;13815;52.374;4.882;2023-05-14T14:23:19;40.45;;;33.45;;
26038;SDS011;13815;52.374;4.882;2023-05-14T14:25:44;47.92;;;34.10;;